createdAt,value
2023-04-16T00:01:27.634Z,3.30
2023-04-16T00:03:56.135Z,3.72
2023-04-16T00:06:24.969Z,3.27
2023-04-16T00:08:54.866Z,3.47
2023-04-16T00:11:23.958Z,3.73
2023-04-16T00:13:52.071Z,3.43
2023-04-16T00:16:20.628Z,3.67
2023-04-16T00:18:48.685Z,3.57
2023-04-16T00:21:17.247Z,3.80
2023-04-16T00:23:45.252Z,3.40
2023-04-16T00:26:15.098Z,3.20
2023-04-16T00:28:43.570Z,3.83
2023-04-16T00:31:11.677Z,3.87
2023-04-16T00:33:40.258Z,3.95
2023-04-16T00:36:09.156Z,3.13
2023-04-16T00:38:37.184Z,2.78
2023-04-16T00:41:05.861Z,3.40
2023-04-16T00:43:35.290Z,3.33
2023-04-16T00:46:07.329Z,3.40
2023-04-16T00:48:36.045Z,3.50
2023-04-16T00:51:06.736Z,3.30
2023-04-16T00:53:35.612Z,3.47
2023-04-16T00:56:05.125Z,3.40
2023-04-16T00:58:36.172Z,3.60
2023-04-16T01:01:04.913Z,3.33
2023-04-16T01:03:40.340Z,3.50
2023-04-16T01:06:09.183Z,3.27
2023-04-16T01:08:37.401Z,3.28
2023-04-16T01:11:06.180Z,3.87
2023-04-16T01:13:39.238Z,3.97
2023-04-16T01:16:09.948Z,3.47
2023-04-16T01:18:39.008Z,3.40
2023-04-16T01:21:08.982Z,3.53
2023-04-16T01:23:37.519Z,4.30
2023-04-16T01:26:05.559Z,3.53
2023-04-16T01:28:34.237Z,3.67
2023-04-16T01:31:02.300Z,3.43
2023-04-16T01:33:30.907Z,3.47
2023-04-16T01:35:59.530Z,3.27
2023-04-16T01:38:29.002Z,3.55
2023-04-16T01:40:59.879Z,3.50
2023-04-16T01:43:28.512Z,3.60
2023-04-16T01:46:12.282Z,3.67
2023-04-16T01:48:40.885Z,3.50
2023-04-16T01:51:09.279Z,3.37
2023-04-16T01:53:38.764Z,3.13
2023-04-16T01:56:08.002Z,3.33
2023-04-16T01:58:36.922Z,3.20
2023-04-16T02:01:05.866Z,3.10
2023-04-16T02:03:34.290Z,3.07
2023-04-16T02:06:02.440Z,2.80
2023-04-16T02:08:30.753Z,3.83
2023-04-16T02:11:00.415Z,3.40
2023-04-16T02:13:28.573Z,3.10
2023-04-16T02:15:56.692Z,2.93
2023-04-16T02:18:24.790Z,3.40
2023-04-16T02:20:52.906Z,3.03
2023-04-16T02:23:20.984Z,3.40
2023-04-16T02:25:49.286Z,3.33
2023-04-16T02:28:18.916Z,3.30
2023-04-16T02:30:47.025Z,3.20
2023-04-16T02:33:15.376Z,3.42
2023-04-16T02:35:43.481Z,3.50
2023-04-16T02:38:11.577Z,3.60
2023-04-16T02:40:39.652Z,3.63
2023-04-16T02:43:07.794Z,4.10
2023-04-16T02:45:37.274Z,3.60
2023-04-16T02:48:07.308Z,3.43
2023-04-16T02:50:35.404Z,3.17
2023-04-16T02:53:04.287Z,3.90
2023-04-16T02:55:32.376Z,3.60
2023-04-16T02:58:00.720Z,3.43
2023-04-16T03:00:28.912Z,3.03
2023-04-16T03:02:58.393Z,3.40
2023-04-16T03:05:26.513Z,3.17
2023-04-16T03:07:56.784Z,3.00
2023-04-16T03:10:25.082Z,3.40
2023-04-16T03:12:53.132Z,3.40
2023-04-16T03:15:21.227Z,3.27
2023-04-16T03:17:49.321Z,3.30
2023-04-16T03:20:19.185Z,3.60
2023-04-16T03:22:47.291Z,3.37
2023-04-16T03:25:15.547Z,3.23
2023-04-16T03:27:43.607Z,3.40
2023-04-16T03:30:13.253Z,3.97
2023-04-16T03:32:42.017Z,3.40
2023-04-16T03:35:11.298Z,3.43
2023-04-16T03:37:40.699Z,3.43
2023-04-16T03:40:09.623Z,3.40
2023-04-16T03:42:37.705Z,3.83
2023-04-16T03:45:06.491Z,3.80
2023-04-16T03:47:34.585Z,3.83
2023-04-16T03:50:02.769Z,3.88
2023-04-16T03:52:30.976Z,3.33
2023-04-16T03:55:00.402Z,3.37
2023-04-16T03:57:28.481Z,3.60
2023-04-16T03:59:56.492Z,3.27
2023-04-16T04:02:24.826Z,3.40
2023-04-16T04:04:53.264Z,3.50
2023-04-16T04:07:21.410Z,3.87
2023-04-16T04:09:49.499Z,3.50
2023-04-16T04:12:19.072Z,4.10
2023-04-16T04:14:47.128Z,3.00
2023-04-16T04:17:15.603Z,3.37
2023-04-16T04:19:54.260Z,3.60
2023-04-16T04:22:28.914Z,3.37
2023-04-16T04:24:56.963Z,3.80
2023-04-16T04:27:26.408Z,3.63
2023-04-16T04:29:54.895Z,4.10
2023-04-16T04:32:23.021Z,3.97
2023-04-16T04:34:51.141Z,7.25
2023-04-16T04:37:19.208Z,5.23
2023-04-16T04:39:47.301Z,4.80
2023-04-16T04:42:15.408Z,3.43
2023-04-16T04:44:44.845Z,3.53
2023-04-16T04:47:12.931Z,3.63
2023-04-16T04:49:41.240Z,3.40
2023-04-16T04:52:09.552Z,3.40
2023-04-16T04:54:41.501Z,3.67
2023-04-16T04:57:09.755Z,3.90
2023-04-16T04:59:37.836Z,3.57
2023-04-16T05:02:07.329Z,3.80
2023-04-16T05:04:35.621Z,3.90
2023-04-16T05:07:03.779Z,4.80
2023-04-16T05:09:31.902Z,3.80
2023-04-16T05:11:59.992Z,3.67
2023-04-16T05:14:28.032Z,3.87
2023-04-16T05:16:56.476Z,3.60
2023-04-16T05:19:26.161Z,3.83
2023-04-16T05:21:54.276Z,3.67
2023-04-16T05:24:22.364Z,3.40
2023-04-16T05:26:50.725Z,3.80
2023-04-16T05:29:18.801Z,3.43
2023-04-16T05:31:47.088Z,3.53
2023-04-16T05:34:15.162Z,3.67
2023-04-16T05:36:44.618Z,3.40
2023-04-16T05:39:12.681Z,3.47
2023-04-16T05:41:40.726Z,3.53
2023-04-16T05:44:08.802Z,3.80
2023-04-16T05:46:36.975Z,3.50
2023-04-16T05:49:05.273Z,3.90
2023-04-16T05:51:33.458Z,3.70
2023-04-16T05:54:02.887Z,3.70
2023-04-16T05:56:30.954Z,4.57
2023-04-16T05:58:59.074Z,3.63
2023-04-16T06:01:27.191Z,3.42
2023-04-16T06:03:55.313Z,3.63
2023-04-16T06:06:23.396Z,3.95
2023-04-16T06:08:51.476Z,3.70
2023-04-16T06:11:20.950Z,3.47
2023-04-16T06:13:49.049Z,3.80
2023-04-16T06:16:17.108Z,3.95
2023-04-16T06:18:45.213Z,3.90
2023-04-16T06:21:13.487Z,4.18
2023-04-16T06:23:41.532Z,4.28
2023-04-16T06:26:09.613Z,4.13
2023-04-16T06:28:39.048Z,3.40
2023-04-16T06:31:07.156Z,4.32
2023-04-16T06:33:35.239Z,4.47
2023-04-16T06:36:03.313Z,4.80
2023-04-16T06:38:31.364Z,4.05
2023-04-16T06:40:59.669Z,4.55
2023-04-16T06:43:28.227Z,3.90
2023-04-16T06:45:57.621Z,3.90
2023-04-16T06:48:26.167Z,4.20
2023-04-16T06:50:54.709Z,4.18
2023-04-16T06:53:22.783Z,4.40
2023-04-16T06:55:50.983Z,3.77
2023-04-16T06:58:19.521Z,3.80
2023-04-16T07:00:47.611Z,3.30
2023-04-16T07:03:17.762Z,3.10
2023-04-16T07:05:45.944Z,3.25
2023-04-16T07:08:14.461Z,3.00
2023-04-16T07:10:42.998Z,2.95
2023-04-16T07:13:11.126Z,2.90
2023-04-16T07:15:39.619Z,2.97
2023-04-16T07:18:07.755Z,3.35
2023-04-16T07:20:37.244Z,3.70
2023-04-16T07:23:05.429Z,3.28
2023-04-16T07:25:33.548Z,3.78
2023-04-16T07:28:01.712Z,3.60
2023-04-16T07:30:34.513Z,3.95
2023-04-16T07:33:02.672Z,3.20
2023-04-16T07:35:31.174Z,3.20
2023-04-16T07:38:00.616Z,2.95
2023-04-16T07:40:28.880Z,3.20
2023-04-16T07:42:57.556Z,3.05
2023-04-16T07:45:25.752Z,3.30
2023-04-16T07:47:53.869Z,3.42
2023-04-16T07:50:21.934Z,3.10
2023-04-16T07:52:50.016Z,2.80
2023-04-16T07:55:19.497Z,2.53
2023-04-16T07:57:47.547Z,2.20
2023-04-16T08:00:16.250Z,2.65
2023-04-16T08:02:45.050Z,2.40
2023-04-16T08:05:14.842Z,2.90
2023-04-16T08:07:42.947Z,2.10
2023-04-16T08:10:11.270Z,1.98
2023-04-16T08:12:41.063Z,1.60
2023-04-16T08:15:09.890Z,1.70
2023-04-16T08:17:37.997Z,1.90
2023-04-16T08:20:08.301Z,1.90
2023-04-16T08:22:36.724Z,1.98
2023-04-16T08:25:05.184Z,1.73
2023-04-16T08:27:33.238Z,1.90
2023-04-16T08:30:02.760Z,2.00
2023-04-16T08:32:30.935Z,2.00
2023-04-16T08:34:59.249Z,2.10
2023-04-16T08:37:27.617Z,1.90
2023-04-16T08:39:55.606Z,2.13
2023-04-16T08:42:31.296Z,1.70
2023-04-16T08:45:07.859Z,2.42
2023-04-16T08:47:37.121Z,1.90
2023-04-16T08:50:06.094Z,1.80
2023-04-16T08:52:35.453Z,2.75
2023-04-16T08:55:07.853Z,1.67
2023-04-16T08:57:41.479Z,2.38
2023-04-16T09:00:12.219Z,5.63
2023-04-16T09:02:40.831Z,8.35
2023-04-16T09:05:10.677Z,7.65
2023-04-16T09:07:39.779Z,7.22
2023-04-16T09:10:09.397Z,6.13
2023-04-16T09:12:37.636Z,4.30
2023-04-16T09:15:07.149Z,4.35
2023-04-16T09:17:37.448Z,3.50
2023-04-16T09:20:08.749Z,2.63
2023-04-16T09:22:37.050Z,2.70
2023-04-16T09:25:05.661Z,2.72
2023-04-16T09:27:33.790Z,2.08
2023-04-16T09:30:01.908Z,3.00
2023-04-16T09:32:30.913Z,3.10
2023-04-16T09:35:01.840Z,3.47
2023-04-16T09:37:31.523Z,3.80
2023-04-16T09:40:01.033Z,3.90
2023-04-16T09:42:31.766Z,3.83
2023-04-16T09:45:01.984Z,4.15
2023-04-16T09:47:41.774Z,3.92
2023-04-16T09:50:18.245Z,3.17
2023-04-16T09:52:50.151Z,3.10
2023-04-16T09:55:23.376Z,3.78
2023-04-16T09:58:00.209Z,2.72
2023-04-16T10:00:30.625Z,2.40
2023-04-16T10:03:05.777Z,2.15
2023-04-16T10:05:35.341Z,2.22
2023-04-16T10:08:03.837Z,1.80
2023-04-16T10:10:31.903Z,2.00
2023-04-16T10:12:59.978Z,1.70
2023-04-16T10:15:28.850Z,1.80
2023-04-16T10:17:58.267Z,2.13
2023-04-16T10:20:27.085Z,1.90
2023-04-16T10:22:57.917Z,1.98
2023-04-16T10:25:26.831Z,1.80
2023-04-16T10:27:56.210Z,1.92
2023-04-16T10:30:24.532Z,1.80
2023-04-16T10:32:53.406Z,1.70
2023-04-16T10:35:21.970Z,1.60
2023-04-16T10:37:51.600Z,1.80
2023-04-16T10:40:25.908Z,3.00
2023-04-16T10:42:58.125Z,1.90
2023-04-16T10:45:32.999Z,1.83
2023-04-16T10:48:05.438Z,1.90
2023-04-16T10:50:37.529Z,1.90
2023-04-16T10:53:22.123Z,1.80
2023-04-16T10:56:14.046Z,2.40
2023-04-16T10:58:42.350Z,2.80
2023-04-16T11:01:14.592Z,2.70
2023-04-16T11:03:44.414Z,2.53
2023-04-16T11:06:17.477Z,2.50
2023-04-16T11:08:54.692Z,2.20
2023-04-16T11:11:24.863Z,2.53
2023-04-16T11:13:57.865Z,2.10
2023-04-16T11:16:27.409Z,2.17
2023-04-16T11:18:57.114Z,2.33
2023-04-16T11:21:26.714Z,2.80
2023-04-16T11:23:56.770Z,2.60
2023-04-16T11:26:30.736Z,1.67
2023-04-16T11:29:00.235Z,2.28
2023-04-16T11:31:28.444Z,2.10
2023-04-16T11:33:58.024Z,1.65
2023-04-16T11:36:27.818Z,1.67
2023-04-16T11:39:03.670Z,1.50
2023-04-16T11:41:33.363Z,1.50
2023-04-16T11:44:01.514Z,1.80
2023-04-16T11:46:40.571Z,1.67
2023-04-16T11:49:09.253Z,1.75
2023-04-16T11:51:41.391Z,1.85
2023-04-16T11:54:12.091Z,1.83
2023-04-16T11:56:48.345Z,2.40
2023-04-16T11:59:18.031Z,1.70
2023-04-16T12:01:49.733Z,1.60
2023-04-16T12:04:20.152Z,1.65
2023-04-16T12:07:09.289Z,1.55
2023-04-16T12:09:40.732Z,1.60
2023-04-16T12:12:27.339Z,1.42
2023-04-16T12:14:56.880Z,1.30
2023-04-16T12:17:25.271Z,1.30
2023-04-16T12:19:56.602Z,1.42
2023-04-16T12:22:29.196Z,1.13
2023-04-16T12:25:00.953Z,1.60
2023-04-16T12:27:45.582Z,1.33
2023-04-16T12:30:15.143Z,1.40
2023-04-16T12:32:44.692Z,1.33
2023-04-16T12:35:13.080Z,1.60
2023-04-16T12:37:41.833Z,1.50
2023-04-16T12:40:10.812Z,1.45
2023-04-16T12:42:38.979Z,1.10
2023-04-16T12:45:09.148Z,0.95
2023-04-16T12:47:37.709Z,1.02
2023-04-16T12:50:06.416Z,1.30
2023-04-16T12:52:36.419Z,0.98
2023-04-16T12:55:04.701Z,1.50
2023-04-16T12:57:33.253Z,1.35
2023-04-16T13:00:01.342Z,1.38
2023-04-16T13:02:32.260Z,1.30
2023-04-16T13:05:00.899Z,1.27
2023-04-16T13:07:31.792Z,1.30
2023-04-16T13:10:01.113Z,1.60
2023-04-16T13:12:29.339Z,1.65
2023-04-16T13:14:57.340Z,1.77
2023-04-16T13:17:26.950Z,1.77
2023-04-16T13:19:56.425Z,1.60
2023-04-16T13:22:26.135Z,2.20
2023-04-16T13:24:54.703Z,2.33
2023-04-16T13:27:22.841Z,2.55
2023-04-16T13:29:50.992Z,2.13
2023-04-16T13:32:19.368Z,2.60
2023-04-16T13:34:47.489Z,2.40
2023-04-16T13:37:17.044Z,2.72
2023-04-16T13:39:45.252Z,3.97
2023-04-16T13:42:13.311Z,3.95
2023-04-16T13:44:41.408Z,6.07
2023-04-16T13:47:09.722Z,4.90
2023-04-16T13:49:37.812Z,4.63
2023-04-16T13:52:05.980Z,7.93
2023-04-16T13:54:35.363Z,7.40
2023-04-16T13:57:03.530Z,8.65
2023-04-16T13:59:31.697Z,8.10
2023-04-16T14:02:00.308Z,6.70
2023-04-16T14:04:28.414Z,5.38
2023-04-16T14:06:56.519Z,4.05
2023-04-16T14:09:24.605Z,3.38
2023-04-16T14:11:54.253Z,3.55
2023-04-16T14:14:22.316Z,2.20
2023-04-16T14:16:50.816Z,2.15
2023-04-16T14:19:18.941Z,2.58
2023-04-16T14:21:47.052Z,2.45
2023-04-16T14:24:15.135Z,2.67
2023-04-16T14:26:44.963Z,2.40
2023-04-16T14:29:14.387Z,2.40
2023-04-16T14:31:42.687Z,3.35
2023-04-16T14:34:10.904Z,2.33
2023-04-16T14:36:39.048Z,2.53
2023-04-16T14:39:07.183Z,2.15
2023-04-16T14:41:35.213Z,2.10
2023-04-16T14:44:04.312Z,2.20
2023-04-16T14:46:34.185Z,2.53
2023-04-16T14:49:02.271Z,2.33
2023-04-16T14:51:31.447Z,2.42
2023-04-16T14:53:59.544Z,2.40
2023-04-16T14:56:27.628Z,2.13
2023-04-16T14:58:55.678Z,2.10
2023-04-16T15:01:23.832Z,1.90
2023-04-16T15:03:56.036Z,3.35
2023-04-16T15:06:24.160Z,2.50
2023-04-16T15:08:52.294Z,1.80
2023-04-16T15:11:20.464Z,1.70
2023-04-16T15:13:48.513Z,1.42
2023-04-16T15:16:16.620Z,1.80
2023-04-16T15:18:44.841Z,1.65
2023-04-16T15:21:14.375Z,1.42
2023-04-16T15:23:42.890Z,1.75
2023-04-16T15:26:11.001Z,1.40
2023-04-16T15:28:39.128Z,1.60
2023-04-16T15:31:07.237Z,2.13
2023-04-16T15:33:35.319Z,1.77
2023-04-16T15:36:03.871Z,2.13
2023-04-16T15:38:33.313Z,1.70
2023-04-16T15:41:01.354Z,1.73
2023-04-16T15:43:30.011Z,1.98
2023-04-16T15:45:58.251Z,1.70
2023-04-16T15:48:26.322Z,1.85
2023-04-16T15:50:55.665Z,2.10
2023-04-16T15:53:23.787Z,1.70
2023-04-16T15:55:53.875Z,1.90
2023-04-16T15:58:23.057Z,1.92
2023-04-16T16:00:51.480Z,2.03
2023-04-16T16:03:19.926Z,2.22
2023-04-16T16:05:48.579Z,2.05
2023-04-16T16:08:17.355Z,2.75
2023-04-16T16:10:45.572Z,2.47
2023-04-16T16:13:18.151Z,2.30
2023-04-16T16:15:46.438Z,2.63
2023-04-16T16:18:14.521Z,1.98
2023-04-16T16:20:42.773Z,2.13
2023-04-16T16:23:11.532Z,1.80
2023-04-16T16:25:39.696Z,1.70
2023-04-16T16:28:07.745Z,1.48
2023-04-16T16:30:37.154Z,1.40
2023-04-16T16:33:05.490Z,1.75
2023-04-16T16:35:33.557Z,1.55
2023-04-16T16:38:01.847Z,2.28
2023-04-16T16:40:30.342Z,2.55
2023-04-16T16:42:58.465Z,2.20
2023-04-16T16:45:27.247Z,2.22
2023-04-16T16:47:58.914Z,3.08
2023-04-16T16:50:27.005Z,2.45
2023-04-16T16:52:55.068Z,1.67
2023-04-16T16:55:23.322Z,1.52
2023-04-16T16:57:51.388Z,2.83
2023-04-16T17:00:21.536Z,1.63
2023-04-16T17:02:51.383Z,1.58
2023-04-16T17:05:21.131Z,1.58
2023-04-16T17:07:49.190Z,2.28
2023-04-16T17:10:21.140Z,2.00
2023-04-16T17:12:49.689Z,5.45
2023-04-16T17:15:19.789Z,5.43
2023-04-16T17:17:49.730Z,4.95
2023-04-16T17:20:17.885Z,3.30
2023-04-16T17:22:47.635Z,3.25
2023-04-16T17:25:15.691Z,2.20
2023-04-16T17:27:43.748Z,1.70
2023-04-16T17:30:12.272Z,1.63
2023-04-16T17:32:40.419Z,2.50
2023-04-16T17:35:10.038Z,1.60
2023-04-16T17:37:38.082Z,1.98
2023-04-16T17:40:10.094Z,2.50
2023-04-16T17:42:38.395Z,1.35
2023-04-16T17:45:07.364Z,1.45
2023-04-16T17:47:36.850Z,1.30
2023-04-16T17:50:05.514Z,1.83
2023-04-16T17:52:33.648Z,1.88
2023-04-16T17:55:01.967Z,1.60
2023-04-16T17:57:31.959Z,1.30
2023-04-16T18:00:00.100Z,1.52
2023-04-16T18:02:28.328Z,2.05
2023-04-16T18:04:56.606Z,1.85
2023-04-16T18:07:24.744Z,1.50
2023-04-16T18:09:52.779Z,1.30
2023-04-16T18:12:20.837Z,1.25
2023-04-16T18:14:50.407Z,0.98
2023-04-16T18:17:19.004Z,1.10
2023-04-16T18:19:47.104Z,1.00
2023-04-16T18:22:15.230Z,1.98
2023-04-16T18:24:43.376Z,1.45
2023-04-16T18:27:12.423Z,1.40
2023-04-16T18:29:40.844Z,2.38
2023-04-16T18:32:12.126Z,13.52
2023-04-16T18:34:40.750Z,24.35
2023-04-16T18:37:08.944Z,26.95
2023-04-16T18:39:37.510Z,15.77
2023-04-16T18:42:05.760Z,6.88
2023-04-16T18:44:33.833Z,4.00
2023-04-16T18:47:02.027Z,4.00
2023-04-16T18:49:31.611Z,2.30
2023-04-16T18:51:59.663Z,1.80
2023-04-16T18:54:28.032Z,1.67
2023-04-16T18:56:57.772Z,1.40
2023-04-16T18:59:27.245Z,1.30
2023-04-16T19:01:55.371Z,1.58
2023-04-16T19:04:23.692Z,1.05
2023-04-16T19:06:53.246Z,1.00
2023-04-16T19:09:21.426Z,1.23
2023-04-16T19:11:50.682Z,1.30
2023-04-16T19:14:18.884Z,1.75
2023-04-16T19:16:47.486Z,1.10
2023-04-16T19:19:16.006Z,1.15
2023-04-16T19:21:44.034Z,1.30
2023-04-16T19:24:13.489Z,2.08
2023-04-16T19:26:41.646Z,1.40
2023-04-16T19:29:10.399Z,1.48
2023-04-16T19:31:39.211Z,1.50
2023-04-16T19:34:07.826Z,1.48
2023-04-16T19:36:36.484Z,2.38
2023-04-16T19:39:05.083Z,1.40
2023-04-16T19:41:34.932Z,1.63
2023-04-16T19:44:03.482Z,2.40
2023-04-16T19:46:32.077Z,2.50
2023-04-16T19:49:00.495Z,1.90
2023-04-16T19:51:28.805Z,1.92
2023-04-16T19:53:58.958Z,2.00
2023-04-16T19:56:27.368Z,2.05
2023-04-16T19:58:57.283Z,2.28
2023-04-16T20:01:26.005Z,2.35
2023-04-16T20:03:54.619Z,2.10
2023-04-16T20:06:22.971Z,2.45
2023-04-16T20:08:51.659Z,2.13
2023-04-16T20:11:19.953Z,3.83
2023-04-16T20:13:48.460Z,2.40
2023-04-16T20:16:22.846Z,2.65
2023-04-16T20:18:54.377Z,2.60
2023-04-16T20:21:22.720Z,2.60
2023-04-16T20:23:50.872Z,2.70
2023-04-16T20:26:19.399Z,2.55
2023-04-16T20:28:47.593Z,2.40
2023-04-16T20:31:17.073Z,2.70
2023-04-16T20:33:45.148Z,2.72
2023-04-16T20:36:13.324Z,2.50
2023-04-16T20:38:42.491Z,2.83
2023-04-16T20:41:20.390Z,2.90
2023-04-16T20:43:50.210Z,2.80
2023-04-16T20:46:24.157Z,3.25
2023-04-16T20:48:52.654Z,2.58
2023-04-16T20:51:21.573Z,3.00
2023-04-16T20:53:52.129Z,2.90
2023-04-16T20:56:20.584Z,2.78
2023-04-16T20:58:48.654Z,3.05
2023-04-16T21:01:18.347Z,2.90
2023-04-16T21:03:48.153Z,3.72
2023-04-16T21:06:17.871Z,3.35
2023-04-16T21:08:46.014Z,3.50
2023-04-16T21:11:14.123Z,3.42
2023-04-16T21:13:42.190Z,3.58
2023-04-16T21:16:12.409Z,3.53
2023-04-16T21:18:40.561Z,3.80
2023-04-16T21:21:09.992Z,3.90
2023-04-16T21:23:38.091Z,3.65
2023-04-16T21:26:06.193Z,3.75
2023-04-16T21:28:34.289Z,3.38
2023-04-16T21:31:02.376Z,3.70
2023-04-16T21:33:30.540Z,3.03
2023-04-16T21:35:58.639Z,3.45
2023-04-16T21:38:28.128Z,3.53
2023-04-16T21:40:56.808Z,3.63
2023-04-16T21:43:25.118Z,3.22
2023-04-16T21:45:53.927Z,3.38
2023-04-16T21:48:22.314Z,3.28
2023-04-16T21:50:56.110Z,3.22
2023-04-16T21:53:24.175Z,3.65
2023-04-16T21:55:53.596Z,3.40
2023-04-16T21:58:21.674Z,3.55
2023-04-16T22:00:49.864Z,3.83
2023-04-16T22:03:18.758Z,3.13
2023-04-16T22:05:47.052Z,3.67
2023-04-16T22:08:23.974Z,3.58
2023-04-16T22:10:57.090Z,3.63
2023-04-16T22:13:26.170Z,3.25
2023-04-16T22:15:54.415Z,3.55
2023-04-16T22:18:24.303Z,4.43
2023-04-16T22:20:54.738Z,3.00
2023-04-16T22:23:22.953Z,3.50
2023-04-16T22:25:51.069Z,3.72
2023-04-16T22:28:20.521Z,3.45
2023-04-16T22:30:48.765Z,3.47
2023-04-16T22:33:16.920Z,3.60
2023-04-16T22:35:45.086Z,4.18
2023-04-16T22:38:13.172Z,3.53
2023-04-16T22:40:41.259Z,3.67
2023-04-16T22:43:09.387Z,3.40
2023-04-16T22:45:38.898Z,3.80
2023-04-16T22:48:07.229Z,3.80
2023-04-16T22:50:35.288Z,3.88
2023-04-16T22:53:03.385Z,3.83
2023-04-16T22:55:31.485Z,3.58
2023-04-16T22:57:59.600Z,3.67
2023-04-16T23:00:28.473Z,3.67
2023-04-16T23:02:58.006Z,4.05
2023-04-16T23:05:26.267Z,4.63
2023-04-16T23:07:54.359Z,3.75
2023-04-16T23:10:22.480Z,3.90
2023-04-16T23:12:50.585Z,3.72
2023-04-16T23:15:18.876Z,3.72
2023-04-16T23:17:47.128Z,3.70
2023-04-16T23:20:16.712Z,4.18
2023-04-16T23:22:44.827Z,3.78
2023-04-16T23:25:12.880Z,4.10
2023-04-16T23:27:40.956Z,3.95
2023-04-16T23:30:09.930Z,3.80
2023-04-16T23:32:38.042Z,3.80
2023-04-16T23:35:06.866Z,3.75
2023-04-16T23:37:36.330Z,4.28
2023-04-16T23:40:04.842Z,4.00
2023-04-16T23:42:32.898Z,5.43
2023-04-16T23:45:00.913Z,4.35
2023-04-16T23:47:29.029Z,4.22
2023-04-16T23:49:57.147Z,5.00
2023-04-16T23:52:25.226Z,6.10
2023-04-16T23:54:54.672Z,4.25
2023-04-16T23:57:22.776Z,4.63
2023-04-16T23:59:50.844Z,4.53
